createdAt,value
2023-02-05T00:00:26.327Z,3.70
2023-02-05T00:02:52.890Z,3.70
2023-02-05T00:05:19.645Z,3.60
2023-02-05T00:07:46.347Z,3.70
2023-02-05T00:10:12.965Z,3.70
2023-02-05T00:12:39.609Z,3.70
2023-02-05T00:15:06.771Z,3.70
2023-02-05T00:17:36.178Z,3.60
2023-02-05T00:20:03.928Z,3.50
2023-02-05T00:22:30.674Z,3.30
2023-02-05T00:24:57.305Z,3.30
2023-02-05T00:27:23.880Z,3.30
2023-02-05T00:29:50.584Z,3.30
2023-02-05T00:32:17.259Z,3.20
2023-02-05T00:34:43.971Z,3.00
2023-02-05T00:37:10.809Z,3.10
2023-02-05T00:39:37.458Z,3.10
2023-02-05T00:42:04.201Z,3.20
2023-02-05T00:44:30.841Z,3.20
2023-02-05T00:46:57.445Z,3.20
2023-02-05T00:49:24.107Z,3.10
2023-02-05T00:51:50.697Z,3.20
2023-02-05T00:54:17.383Z,3.20
2023-02-05T00:56:44.012Z,3.20
2023-02-05T00:59:11.054Z,3.30
2023-02-05T01:01:37.751Z,3.20
2023-02-05T01:04:04.661Z,3.10
2023-02-05T01:06:31.285Z,3.00
2023-02-05T01:08:57.854Z,3.10
2023-02-05T01:11:24.451Z,3.20
2023-02-05T01:13:51.058Z,3.20
2023-02-05T01:16:17.816Z,3.20
2023-02-05T01:18:44.473Z,3.20
2023-02-05T01:21:11.142Z,3.20
2023-02-05T01:23:37.874Z,3.30
2023-02-05T01:26:04.725Z,3.30
2023-02-05T01:28:31.513Z,3.30
2023-02-05T01:30:58.324Z,3.40
2023-02-05T01:33:25.047Z,3.40
2023-02-05T01:35:51.619Z,3.40
2023-02-05T01:38:18.330Z,3.40
2023-02-05T01:40:44.984Z,3.40
2023-02-05T01:43:13.533Z,3.40
2023-02-05T01:46:04.897Z,3.40
2023-02-05T01:48:37.969Z,3.40
2023-02-05T01:51:08.717Z,3.40
2023-02-05T01:53:37.271Z,3.40
2023-02-05T01:56:09.406Z,3.40
2023-02-05T01:58:58.477Z,3.40
2023-02-05T02:01:27.521Z,3.40
2023-02-05T02:03:57.187Z,3.40
2023-02-05T02:06:23.959Z,3.40
2023-02-05T02:08:50.554Z,3.40
2023-02-05T02:11:21.172Z,3.40
2023-02-05T02:13:50.627Z,3.30
2023-02-05T02:16:17.570Z,3.30
2023-02-05T02:18:45.674Z,3.40
2023-02-05T02:21:30.992Z,3.40
2023-02-05T02:24:09.842Z,3.40
2023-02-05T02:26:46.749Z,3.40
2023-02-05T02:29:22.862Z,3.50
2023-02-05T02:31:57.280Z,3.40
2023-02-05T02:34:40.106Z,3.40
2023-02-05T02:37:09.917Z,3.40
2023-02-05T02:39:57.344Z,3.30
2023-02-05T02:42:39.771Z,3.10
2023-02-05T02:45:09.798Z,3.20
2023-02-05T02:47:48.887Z,3.20
2023-02-05T02:50:26.433Z,3.30
2023-02-05T02:52:55.182Z,3.30
2023-02-05T02:55:23.458Z,3.20
2023-02-05T02:57:51.584Z,3.30
2023-02-05T03:00:26.744Z,3.20
2023-02-05T03:02:59.204Z,3.10
2023-02-05T03:05:28.869Z,3.10
2023-02-05T03:08:04.011Z,3.20
2023-02-05T03:10:42.623Z,3.20
2023-02-05T03:13:10.976Z,3.30
2023-02-05T03:15:45.540Z,3.40
2023-02-05T03:18:13.739Z,3.40
2023-02-05T03:20:55.610Z,3.20
2023-02-05T03:23:22.632Z,3.10
2023-02-05T03:25:49.284Z,3.10
2023-02-05T03:28:16.034Z,3.20
2023-02-05T03:30:49.412Z,3.10
2023-02-05T03:33:27.948Z,3.20
2023-02-05T03:36:08.204Z,3.20
2023-02-05T03:38:55.519Z,3.30
2023-02-05T03:41:56.295Z,3.20
2023-02-05T03:44:31.444Z,3.10
2023-02-05T03:47:04.059Z,3.20
2023-02-05T03:50:00.692Z,3.30
2023-02-05T03:52:37.808Z,3.40
2023-02-05T03:55:13.153Z,3.50
2023-02-05T03:57:42.232Z,3.60
2023-02-05T04:00:10.285Z,3.60
2023-02-05T04:02:37.061Z,3.40
2023-02-05T04:05:03.898Z,3.30
2023-02-05T04:07:30.708Z,3.30
2023-02-05T04:09:57.313Z,3.40
2023-02-05T04:12:24.002Z,3.40
2023-02-05T04:14:50.618Z,3.30
2023-02-05T04:17:17.363Z,3.40
2023-02-05T04:19:43.963Z,3.30
2023-02-05T04:22:10.558Z,3.30
2023-02-05T04:24:37.327Z,3.30
2023-02-05T04:27:03.969Z,3.40
2023-02-05T04:29:31.768Z,3.40
2023-02-05T04:31:58.557Z,3.50
2023-02-05T04:34:25.167Z,3.50
2023-02-05T04:36:51.821Z,3.50
2023-02-05T04:39:18.418Z,3.60
2023-02-05T04:41:45.020Z,3.50
2023-02-05T04:44:11.592Z,3.40
2023-02-05T04:46:38.277Z,3.50
2023-02-05T04:49:05.010Z,3.50
2023-02-05T04:51:31.706Z,3.60
2023-02-05T04:53:58.305Z,3.60
2023-02-05T04:56:25.137Z,3.50
2023-02-05T04:58:51.866Z,3.50
2023-02-05T05:01:23.183Z,3.50
2023-02-05T05:03:50.819Z,3.50
2023-02-05T05:06:18.964Z,3.60
2023-02-05T05:08:45.583Z,3.60
2023-02-05T05:11:18.166Z,3.70
2023-02-05T05:13:45.344Z,3.70
2023-02-05T05:16:13.361Z,3.60
2023-02-05T05:18:40.411Z,3.60
2023-02-05T05:21:08.305Z,3.70
2023-02-05T05:23:35.793Z,3.60
2023-02-05T05:26:07.649Z,3.60
2023-02-05T05:28:35.021Z,3.60
2023-02-05T05:31:14.469Z,3.60
2023-02-05T05:33:41.170Z,3.60
2023-02-05T05:36:08.376Z,3.60
2023-02-05T05:38:35.379Z,3.40
2023-02-05T05:41:20.669Z,3.40
2023-02-05T05:43:48.005Z,3.30
2023-02-05T05:46:23.808Z,3.30
2023-02-05T05:48:55.760Z,3.30
2023-02-05T05:51:24.130Z,3.30
2023-02-05T05:53:51.079Z,3.30
2023-02-05T05:56:18.122Z,3.40
2023-02-05T05:58:45.673Z,3.40
2023-02-05T06:01:13.934Z,3.40
2023-02-05T06:03:40.694Z,3.50
2023-02-05T06:06:08.798Z,3.40
2023-02-05T06:08:35.417Z,3.40
2023-02-05T06:11:02.220Z,3.50
2023-02-05T06:13:28.970Z,3.50
2023-02-05T06:15:55.840Z,3.50
2023-02-05T06:18:23.881Z,3.50
2023-02-05T06:20:50.804Z,3.50
2023-02-05T06:23:17.655Z,3.60
2023-02-05T06:25:44.548Z,3.50
2023-02-05T06:28:11.734Z,3.60
2023-02-05T06:30:38.824Z,3.50
2023-02-05T06:33:05.561Z,3.40
2023-02-05T06:35:32.647Z,3.30
2023-02-05T06:37:59.425Z,3.30
2023-02-05T06:40:28.035Z,3.30
2023-02-05T06:42:54.717Z,3.30
2023-02-05T06:45:21.903Z,3.30
2023-02-05T06:47:48.896Z,3.30
2023-02-05T06:50:15.689Z,3.20
2023-02-05T06:52:42.343Z,3.20
2023-02-05T06:55:09.188Z,3.20
2023-02-05T06:57:35.814Z,3.20
2023-02-05T07:00:02.714Z,3.10
2023-02-05T07:02:29.431Z,3.00
2023-02-05T07:04:56.053Z,3.00
2023-02-05T07:07:22.686Z,3.00
2023-02-05T07:09:49.385Z,3.00
2023-02-05T07:12:16.156Z,2.90
2023-02-05T07:14:42.846Z,3.00
2023-02-05T07:17:09.746Z,3.10
2023-02-05T07:19:37.556Z,3.10
2023-02-05T07:22:05.400Z,3.00
2023-02-05T07:24:32.280Z,3.00
2023-02-05T07:26:58.958Z,3.00
2023-02-05T07:29:25.705Z,3.00
2023-02-05T07:31:52.533Z,2.90
2023-02-05T07:34:19.617Z,3.00
2023-02-05T07:36:49.055Z,3.00
2023-02-05T07:39:15.993Z,3.00
2023-02-05T07:41:42.624Z,3.10
2023-02-05T07:44:09.333Z,3.20
2023-02-05T07:46:36.031Z,3.30
2023-02-05T07:49:02.713Z,3.30
2023-02-05T07:51:29.922Z,3.30
2023-02-05T07:53:56.588Z,3.40
2023-02-05T07:56:25.703Z,3.40
2023-02-05T07:58:52.545Z,3.30
2023-02-05T08:01:19.252Z,3.30
2023-02-05T08:03:46.193Z,3.20
2023-02-05T08:06:15.513Z,3.10
2023-02-05T08:08:42.437Z,3.10
2023-02-05T08:11:15.968Z,3.20
2023-02-05T08:13:43.274Z,3.10
2023-02-05T08:16:11.349Z,3.20
2023-02-05T08:18:38.114Z,3.30
2023-02-05T08:21:04.973Z,3.30
2023-02-05T08:23:31.615Z,3.30
2023-02-05T08:25:59.064Z,3.20
2023-02-05T08:28:27.397Z,3.30
2023-02-05T08:30:54.200Z,3.30
2023-02-05T08:33:20.895Z,3.30
2023-02-05T08:35:47.830Z,3.30
2023-02-05T08:38:14.551Z,3.30
2023-02-05T08:40:41.265Z,3.30
2023-02-05T08:43:08.512Z,3.30
2023-02-05T08:45:35.622Z,3.30
2023-02-05T08:48:02.625Z,3.30
2023-02-05T08:50:29.659Z,3.20
2023-02-05T08:52:57.354Z,3.20
2023-02-05T08:55:23.931Z,3.10
2023-02-05T08:57:50.698Z,3.20
2023-02-05T09:00:17.808Z,3.20
2023-02-05T09:02:44.573Z,3.20
2023-02-05T09:05:11.249Z,3.30
2023-02-05T09:07:40.963Z,3.30
2023-02-05T09:10:09.130Z,3.20
2023-02-05T09:12:35.929Z,3.40
2023-02-05T09:15:02.568Z,3.40
2023-02-05T09:17:29.184Z,3.50
2023-02-05T09:19:55.972Z,3.60
2023-02-05T09:22:22.583Z,3.60
2023-02-05T09:24:49.333Z,3.60
2023-02-05T09:27:15.972Z,3.60
2023-02-05T09:29:42.597Z,3.60
2023-02-05T09:32:09.258Z,3.60
2023-02-05T09:34:35.888Z,3.60
2023-02-05T09:37:02.646Z,3.50
2023-02-05T09:40:12.353Z,3.40
2023-02-05T09:42:47.168Z,3.40
2023-02-05T09:45:28.761Z,3.20
2023-02-05T09:48:23.857Z,3.20
2023-02-05T09:50:50.712Z,3.20
2023-02-05T09:53:21.490Z,3.30
2023-02-05T09:55:48.453Z,3.40
2023-02-05T09:58:31.120Z,3.40
2023-02-05T10:01:03.435Z,3.40
2023-02-05T10:03:45.260Z,3.50
2023-02-05T10:06:23.324Z,3.60
2023-02-05T10:08:59.061Z,3.50
2023-02-05T10:11:41.531Z,3.40
2023-02-05T10:14:33.914Z,3.40
2023-02-05T10:17:20.411Z,3.50
2023-02-05T10:20:02.922Z,3.60
2023-02-05T10:22:57.408Z,3.70
2023-02-05T10:25:48.323Z,3.60
2023-02-05T10:28:29.173Z,3.70
2023-02-05T10:31:05.122Z,3.70
2023-02-05T10:33:55.996Z,3.70
2023-02-05T10:36:25.608Z,3.70
2023-02-05T10:38:56.720Z,3.70
2023-02-05T10:41:29.901Z,3.70
2023-02-05T10:44:19.309Z,3.70
2023-02-05T10:46:51.611Z,3.70
2023-02-05T10:49:57.635Z,3.70
2023-02-05T10:52:24.248Z,3.70
2023-02-05T10:54:51.103Z,3.80
2023-02-05T10:57:21.766Z,3.70
2023-02-05T11:00:01.638Z,3.70
2023-02-05T11:02:34.644Z,3.70
2023-02-05T11:05:24.357Z,3.80
2023-02-05T11:07:52.106Z,3.80
2023-02-05T11:10:22.081Z,3.80
2023-02-05T11:12:55.272Z,3.80
2023-02-05T11:15:27.786Z,3.80
2023-02-05T11:18:04.384Z,3.80
2023-02-05T11:20:37.161Z,3.80
2023-02-05T11:23:21.129Z,3.90
2023-02-05T11:25:56.748Z,3.90
2023-02-05T11:28:35.876Z,3.90
2023-02-05T11:31:23.708Z,3.90
2023-02-05T11:33:50.654Z,3.90
2023-02-05T11:36:21.880Z,3.80
2023-02-05T11:38:56.389Z,3.80
2023-02-05T11:41:51.652Z,3.90
2023-02-05T11:44:24.036Z,3.90
2023-02-05T11:46:56.996Z,3.90
2023-02-05T11:49:41.554Z,3.90
2023-02-05T11:52:11.545Z,3.90
2023-02-05T11:54:39.209Z,3.90
2023-02-05T11:57:27.190Z,3.80
2023-02-05T11:59:58.227Z,3.80
2023-02-05T12:02:30.714Z,3.90
2023-02-05T12:05:20.565Z,4.00
2023-02-05T12:07:51.214Z,4.00
2023-02-05T12:10:38.312Z,4.20
2023-02-05T12:13:19.633Z,4.20
2023-02-05T12:16:07.998Z,4.10
2023-02-05T12:18:54.879Z,4.10
2023-02-05T12:21:46.121Z,4.10
2023-02-05T12:24:31.744Z,4.00
2023-02-05T12:27:16.220Z,3.90
2023-02-05T12:30:11.196Z,3.90
2023-02-05T12:32:56.912Z,3.80
2023-02-05T12:35:50.783Z,3.80
2023-02-05T12:38:32.348Z,3.80
2023-02-05T12:41:05.086Z,3.80
2023-02-05T12:43:38.961Z,3.90
2023-02-05T12:46:31.774Z,3.90
2023-02-05T12:49:35.576Z,3.90
2023-02-05T12:52:04.959Z,4.10
2023-02-05T12:54:50.761Z,4.30
2023-02-05T12:57:21.644Z,4.40
2023-02-05T13:00:00.473Z,4.40
2023-02-05T13:02:49.611Z,4.30
2023-02-05T13:05:32.665Z,4.40
2023-02-05T13:08:08.325Z,4.40
2023-02-05T13:10:48.716Z,4.50
2023-02-05T13:13:22.562Z,4.70
2023-02-05T13:15:58.862Z,4.80
2023-02-05T13:18:35.355Z,4.70
2023-02-05T13:21:36.575Z,4.80
2023-02-05T13:24:49.292Z,4.70
2023-02-05T13:27:40.078Z,4.60
2023-02-05T13:30:15.643Z,4.70
2023-02-05T13:32:47.379Z,4.90
2023-02-05T13:35:15.053Z,4.90
2023-02-05T13:37:59.699Z,5.00
2023-02-05T13:40:45.220Z,4.90
2023-02-05T13:43:49.214Z,4.90
2023-02-05T13:46:32.453Z,4.90
2023-02-05T13:49:35.120Z,4.90
2023-02-05T13:52:18.582Z,4.90
2023-02-05T13:55:06.499Z,5.00
2023-02-05T13:58:08.861Z,5.10
2023-02-05T14:00:39.410Z,5.10
2023-02-05T14:03:09.518Z,5.20
2023-02-05T14:05:39.101Z,5.20
2023-02-05T14:08:18.756Z,5.20
2023-02-05T14:10:47.102Z,5.20
2023-02-05T14:13:32.440Z,5.10
2023-02-05T14:16:24.652Z,5.00
2023-02-05T14:19:14.140Z,5.00
2023-02-05T14:21:57.487Z,4.90
2023-02-05T14:24:47.083Z,5.00
2023-02-05T14:27:26.002Z,4.90
2023-02-05T14:29:53.443Z,4.70
2023-02-05T14:32:26.019Z,4.60
2023-02-05T14:35:04.837Z,4.40
2023-02-05T14:37:38.914Z,4.50
2023-02-05T14:40:37.743Z,4.50
2023-02-05T14:43:22.400Z,4.50
2023-02-05T14:45:52.044Z,4.50
2023-02-05T14:48:26.124Z,4.50
2023-02-05T14:51:08.223Z,4.40
2023-02-05T14:53:37.429Z,4.50
2023-02-05T14:56:05.279Z,4.50
2023-02-05T14:58:38.503Z,4.40
2023-02-05T15:01:33.271Z,4.50
2023-02-05T15:04:02.163Z,4.50
2023-02-05T15:06:31.219Z,4.50
2023-02-05T15:09:26.778Z,4.50
2023-02-05T15:12:14.198Z,4.40
2023-02-05T15:14:52.509Z,4.40
2023-02-05T15:17:32.258Z,4.40
2023-02-05T15:20:05.299Z,4.50
2023-02-05T15:22:40.183Z,4.50
2023-02-05T15:25:33.251Z,4.60
2023-02-05T15:28:04.067Z,4.70
2023-02-05T15:30:43.461Z,4.70
2023-02-05T15:33:21.650Z,4.70
2023-02-05T15:35:51.439Z,4.70
2023-02-05T15:38:35.231Z,4.70
2023-02-05T15:41:06.729Z,4.70
2023-02-05T15:43:33.505Z,4.60
2023-02-05T15:46:06.785Z,4.50
2023-02-05T15:48:36.326Z,4.50
2023-02-05T15:51:30.669Z,4.50
2023-02-05T15:53:59.888Z,4.50
2023-02-05T15:56:32.737Z,4.50
2023-02-05T15:59:04.703Z,4.60
2023-02-05T16:01:34.551Z,4.60
2023-02-05T16:04:01.910Z,4.60
2023-02-05T16:06:30.625Z,4.60
2023-02-05T16:08:57.499Z,4.60
2023-02-05T16:11:33.258Z,4.60
2023-02-05T16:14:28.585Z,4.60
2023-02-05T16:17:19.599Z,4.40
2023-02-05T16:20:05.530Z,4.50
2023-02-05T16:22:39.038Z,4.50
2023-02-05T16:25:28.150Z,4.50
2023-02-05T16:27:56.227Z,4.50
2023-02-05T16:30:42.940Z,4.50
2023-02-05T16:33:34.805Z,4.50
2023-02-05T16:36:13.379Z,4.60
2023-02-05T16:38:40.066Z,4.60
2023-02-05T16:41:31.730Z,4.60
2023-02-05T16:44:03.635Z,4.50
2023-02-05T16:46:31.335Z,4.50
2023-02-05T16:49:00.177Z,4.50
2023-02-05T16:51:55.047Z,4.50
2023-02-05T16:54:27.427Z,4.50
2023-02-05T16:57:02.856Z,4.50
2023-02-05T16:59:46.401Z,4.50
2023-02-05T17:02:31.995Z,4.50
2023-02-05T17:05:01.314Z,4.50
2023-02-05T17:07:28.894Z,4.50
2023-02-05T17:10:13.106Z,4.50
2023-02-05T17:12:46.904Z,4.50
2023-02-05T17:15:13.533Z,4.60
2023-02-05T17:17:52.982Z,4.60
2023-02-05T17:20:22.411Z,4.50
2023-02-05T17:23:07.445Z,4.60
2023-02-05T17:25:52.368Z,4.50
2023-02-05T17:28:24.785Z,4.60
2023-02-05T17:30:52.790Z,4.60
2023-02-05T17:33:23.021Z,4.50
2023-02-05T17:35:50.338Z,4.50
2023-02-05T17:38:18.010Z,4.60
2023-02-05T17:40:44.777Z,4.50
2023-02-05T17:43:11.404Z,4.50
2023-02-05T17:45:40.530Z,4.50
2023-02-05T17:48:07.963Z,4.50
2023-02-05T17:50:36.499Z,4.50
2023-02-05T17:53:03.412Z,4.50
2023-02-05T17:55:30.503Z,4.50
2023-02-05T17:57:57.238Z,4.60
2023-02-05T18:00:26.510Z,4.60
2023-02-05T18:02:53.849Z,4.50
2023-02-05T18:05:21.290Z,4.50
2023-02-05T18:07:50.728Z,4.60
2023-02-05T18:10:24.007Z,4.60
2023-02-05T18:12:51.297Z,4.60
2023-02-05T18:15:18.372Z,4.60
2023-02-05T18:17:45.339Z,4.50
2023-02-05T18:20:13.180Z,4.60
2023-02-05T18:22:39.841Z,4.50
2023-02-05T18:25:07.371Z,4.50
2023-02-05T18:27:34.051Z,4.50
2023-02-05T18:30:00.751Z,4.50
2023-02-05T18:32:27.870Z,4.50
2023-02-05T18:34:54.534Z,4.50
2023-02-05T18:37:21.460Z,4.60
2023-02-05T18:39:48.195Z,4.50
2023-02-05T18:42:14.935Z,4.50
2023-02-05T18:44:41.570Z,4.50
2023-02-05T18:47:08.754Z,4.60
2023-02-05T18:49:35.960Z,4.50
2023-02-05T18:52:02.963Z,4.50
2023-02-05T18:54:29.584Z,4.60
2023-02-05T18:56:57.030Z,4.50
2023-02-05T18:59:26.729Z,4.50
2023-02-05T19:01:53.576Z,4.50
2023-02-05T19:04:21.034Z,4.50
2023-02-05T19:06:53.369Z,4.50
2023-02-05T19:09:21.842Z,4.60
2023-02-05T19:11:49.245Z,4.50
2023-02-05T19:14:18.876Z,4.50
2023-02-05T19:16:47.011Z,4.50
2023-02-05T19:19:17.310Z,4.50
2023-02-05T19:21:44.925Z,4.50
2023-02-05T19:24:13.903Z,4.50
2023-02-05T19:26:43.434Z,4.50
2023-02-05T19:29:14.759Z,4.60
2023-02-05T19:31:42.096Z,4.60
2023-02-05T19:34:09.482Z,4.60
2023-02-05T19:36:36.739Z,4.50
2023-02-05T19:39:06.042Z,4.50
2023-02-05T19:41:35.183Z,4.60
2023-02-05T19:44:04.236Z,4.60
2023-02-05T19:46:37.459Z,4.60
2023-02-05T19:49:14.696Z,4.60
2023-02-05T19:51:44.728Z,4.60
2023-02-05T19:54:11.721Z,4.60
2023-02-05T19:56:38.522Z,4.60
2023-02-05T19:59:06.388Z,4.50
2023-02-05T20:01:36.214Z,4.60
2023-02-05T20:04:17.151Z,4.60
2023-02-05T20:06:46.234Z,4.60
2023-02-05T20:09:14.349Z,4.50
2023-02-05T20:11:42.362Z,4.50
2023-02-05T20:14:10.383Z,4.50
2023-02-05T20:16:40.057Z,4.50
2023-02-05T20:19:09.538Z,4.50
2023-02-05T20:21:36.382Z,4.50
2023-02-05T20:24:04.550Z,4.50
2023-02-05T20:26:31.650Z,4.50
2023-02-05T20:29:17.250Z,4.50
2023-02-05T20:31:47.910Z,4.40
2023-02-05T20:34:21.810Z,4.40
2023-02-05T20:36:52.549Z,4.50
2023-02-05T20:39:20.822Z,4.40
2023-02-05T20:41:50.331Z,4.40
2023-02-05T20:44:17.914Z,4.50
2023-02-05T20:46:45.155Z,4.50
2023-02-05T20:49:12.932Z,4.40
2023-02-05T20:51:39.914Z,4.40
2023-02-05T20:54:07.108Z,4.40
2023-02-05T20:56:34.140Z,4.40
2023-02-05T20:59:02.306Z,4.50
2023-02-05T21:01:30.433Z,4.40
2023-02-05T21:04:00.079Z,4.40
2023-02-05T21:06:27.774Z,4.40
2023-02-05T21:08:55.288Z,4.40
2023-02-05T21:11:23.385Z,4.40
2023-02-05T21:13:50.870Z,4.40
2023-02-05T21:16:20.724Z,4.50
2023-02-05T21:18:48.747Z,4.50
2023-02-05T21:21:19.614Z,4.60
2023-02-05T21:23:46.650Z,4.60
2023-02-05T21:26:24.904Z,4.50
2023-02-05T21:29:01.060Z,4.50
2023-02-05T21:31:33.832Z,4.50
2023-02-05T21:34:05.652Z,4.30
2023-02-05T21:36:32.630Z,4.30
2023-02-05T21:38:59.645Z,4.30
2023-02-05T21:41:27.004Z,4.30
2023-02-05T21:43:59.342Z,4.30
2023-02-05T21:46:29.201Z,4.20
2023-02-05T21:48:57.601Z,4.30
2023-02-05T21:51:26.332Z,4.20
2023-02-05T21:53:58.965Z,4.30
2023-02-05T21:56:31.809Z,4.20
2023-02-05T21:58:58.731Z,4.20
2023-02-05T22:01:28.329Z,4.20
2023-02-05T22:03:56.287Z,4.10
2023-02-05T22:06:24.890Z,4.20
2023-02-05T22:08:51.996Z,4.20
2023-02-05T22:11:21.055Z,4.10
2023-02-05T22:13:49.741Z,4.00
2023-02-05T22:16:19.999Z,4.00
2023-02-05T22:18:47.519Z,4.00
2023-02-05T22:21:23.639Z,4.00
2023-02-05T22:23:53.455Z,4.00
2023-02-05T22:26:32.619Z,3.90
2023-02-05T22:29:00.352Z,3.90
2023-02-05T22:31:28.307Z,3.90
2023-02-05T22:33:55.670Z,3.90
2023-02-05T22:36:24.924Z,3.90
2023-02-05T22:38:52.366Z,3.90
2023-02-05T22:41:22.084Z,3.90
2023-02-05T22:43:49.335Z,3.90
2023-02-05T22:46:21.373Z,4.00
2023-02-05T22:48:49.874Z,4.10
2023-02-05T22:51:31.473Z,4.10
2023-02-05T22:53:58.899Z,4.10
2023-02-05T22:56:26.001Z,4.20
2023-02-05T22:58:53.198Z,4.10
2023-02-05T23:01:24.270Z,4.10
2023-02-05T23:03:51.960Z,4.10
2023-02-05T23:06:22.465Z,4.10
2023-02-05T23:08:51.421Z,4.20
2023-02-05T23:11:18.658Z,4.20
2023-02-05T23:13:45.270Z,4.30
2023-02-05T23:16:14.866Z,4.20
2023-02-05T23:18:41.991Z,4.20
2023-02-05T23:21:14.433Z,4.20
2023-02-05T23:23:41.416Z,4.10
2023-02-05T23:26:17.246Z,4.10
2023-02-05T23:28:44.518Z,4.10
2023-02-05T23:31:11.321Z,4.00
2023-02-05T23:33:38.397Z,4.00
2023-02-05T23:36:06.357Z,4.00
2023-02-05T23:38:33.530Z,3.90
2023-02-05T23:41:00.125Z,3.90
2023-02-05T23:43:26.908Z,3.80
2023-02-05T23:45:54.604Z,3.70
2023-02-05T23:48:21.316Z,3.70
2023-02-05T23:50:55.025Z,3.60
2023-02-05T23:53:21.745Z,3.50
2023-02-05T23:55:50.372Z,3.50
2023-02-05T23:58:19.082Z,3.60
